createdAt,value
2018-07-20T00:00:53.443Z,43.47
2018-07-20T00:03:21.949Z,43.36
2018-07-20T00:05:50.406Z,43.35
2018-07-20T00:08:18.984Z,43.63
2018-07-20T00:10:47.437Z,44.19
2018-07-20T00:13:15.999Z,44.05
2018-07-20T00:15:44.560Z,44.39
2018-07-20T00:18:13.159Z,44.32
2018-07-20T00:20:41.737Z,44.35
2018-07-20T00:23:10.269Z,45.12
2018-07-20T00:25:38.758Z,44.51
2018-07-20T00:28:07.280Z,45.26
2018-07-20T00:30:35.797Z,45.63
2018-07-20T00:33:04.307Z,45.59
2018-07-20T00:35:32.734Z,46.02
2018-07-20T00:38:01.294Z,46.09
2018-07-20T00:40:29.798Z,46.17
2018-07-20T00:42:58.334Z,45.25
2018-07-20T00:45:26.829Z,46.17
2018-07-20T00:47:55.314Z,46.38
2018-07-20T00:50:23.840Z,46.42
2018-07-20T00:52:52.356Z,46.86
2018-07-20T00:55:20.807Z,45.89
2018-07-20T00:57:49.333Z,46.50
2018-07-20T01:00:17.837Z,46.54
2018-07-20T01:02:46.393Z,47.20
2018-07-20T01:05:14.856Z,47.22
2018-07-20T01:07:43.388Z,46.50
2018-07-20T01:10:11.904Z,47.12
2018-07-20T01:12:40.479Z,47.22
2018-07-20T01:15:08.964Z,46.66
2018-07-20T01:17:37.573Z,46.88
2018-07-20T01:20:06.871Z,46.58
2018-07-20T01:22:35.359Z,47.92
2018-07-20T01:25:03.908Z,47.23
2018-07-20T01:27:32.446Z,47.43
2018-07-20T01:30:00.952Z,47.38
2018-07-20T01:32:29.423Z,47.63
2018-07-20T01:34:57.932Z,47.91
2018-07-20T01:37:26.376Z,47.79
2018-07-20T01:39:54.875Z,47.98
2018-07-20T01:42:23.448Z,48.09
2018-07-20T01:44:51.947Z,48.64
2018-07-20T01:47:20.420Z,48.39
2018-07-20T01:49:48.972Z,48.19
2018-07-20T01:52:17.510Z,48.95
2018-07-20T01:54:46.004Z,49.33
2018-07-20T01:57:14.545Z,49.17
2018-07-20T01:59:43.091Z,49.20
2018-07-20T02:02:11.632Z,48.48
2018-07-20T02:04:40.236Z,48.94
2018-07-20T02:07:08.819Z,49.31
2018-07-20T02:09:37.361Z,48.81
2018-07-20T02:12:12.251Z,50.00
2018-07-20T02:14:40.863Z,49.69
2018-07-20T02:17:09.517Z,49.14
2018-07-20T02:19:38.020Z,49.80
2018-07-20T02:22:06.927Z,50.02
2018-07-20T02:24:35.528Z,50.02
2018-07-20T02:27:04.101Z,50.11
2018-07-20T02:29:32.815Z,49.93
2018-07-20T02:32:01.313Z,50.04
2018-07-20T02:34:29.920Z,49.37
2018-07-20T02:36:58.453Z,50.31
2018-07-20T02:39:27.086Z,50.25
2018-07-20T02:41:55.665Z,49.71
2018-07-20T02:44:24.238Z,49.79
2018-07-20T02:46:52.723Z,50.70
2018-07-20T02:49:21.272Z,50.88
2018-07-20T02:51:49.775Z,50.23
2018-07-20T02:54:18.331Z,49.60
2018-07-20T02:56:46.867Z,50.52
2018-07-20T02:59:15.449Z,50.18
2018-07-20T03:01:43.971Z,50.29
2018-07-20T03:04:12.721Z,50.98
2018-07-20T03:06:41.251Z,50.07
2018-07-20T03:09:11.850Z,50.25
2018-07-20T03:11:40.411Z,50.69
2018-07-20T03:14:09.011Z,50.07
2018-07-20T03:16:37.610Z,50.24
2018-07-20T03:19:06.403Z,50.10
2018-07-20T03:21:35.034Z,50.15
2018-07-20T03:24:03.640Z,50.88
2018-07-20T03:26:32.136Z,51.32
2018-07-20T03:29:00.657Z,51.14
2018-07-20T03:31:29.159Z,50.72
2018-07-20T03:33:57.666Z,51.34
2018-07-20T03:36:26.181Z,51.04
2018-07-20T03:38:54.780Z,51.29
2018-07-20T03:41:23.384Z,51.36
2018-07-20T03:43:51.977Z,51.42
2018-07-20T03:46:20.558Z,50.66
2018-07-20T03:48:49.082Z,51.23
2018-07-20T03:51:17.666Z,50.97
2018-07-20T03:53:46.170Z,51.11
2018-07-20T03:56:14.769Z,50.60
2018-07-20T03:58:43.386Z,51.35
2018-07-20T04:01:12.087Z,51.62
2018-07-20T04:03:40.809Z,51.22
2018-07-20T04:06:09.344Z,50.75
2018-07-20T04:08:37.885Z,51.09
2018-07-20T04:11:06.429Z,51.20
2018-07-20T04:13:34.919Z,50.82
2018-07-20T04:16:03.542Z,50.89
2018-07-20T04:18:32.073Z,50.13
2018-07-20T04:21:00.635Z,50.27
2018-07-20T04:23:29.524Z,49.95
2018-07-20T04:25:58.968Z,49.62
2018-07-20T04:28:27.453Z,49.78
2018-07-20T04:30:56.020Z,49.39
2018-07-20T04:33:24.531Z,50.03
2018-07-20T04:35:53.152Z,49.37
2018-07-20T04:38:21.868Z,49.82
2018-07-20T04:40:50.356Z,49.95
2018-07-20T04:43:18.944Z,49.25
2018-07-20T04:45:47.618Z,48.56
2018-07-20T04:48:16.164Z,49.36
2018-07-20T04:50:44.809Z,48.59
2018-07-20T04:53:13.351Z,47.87
2018-07-20T04:55:41.916Z,47.74
2018-07-20T04:58:10.489Z,47.92
2018-07-20T05:00:39.039Z,47.85
2018-07-20T05:03:08.089Z,47.78
2018-07-20T05:05:36.746Z,48.36
2018-07-20T05:08:05.254Z,47.97
2018-07-20T05:10:33.835Z,48.14
2018-07-20T05:13:02.823Z,48.49
2018-07-20T05:15:31.345Z,48.48
2018-07-20T05:17:59.928Z,47.91
2018-07-20T05:20:28.492Z,47.71
2018-07-20T05:22:57.048Z,47.25
2018-07-20T05:25:25.702Z,47.71
2018-07-20T05:27:54.273Z,47.73
2018-07-20T05:30:22.822Z,47.54
2018-07-20T05:32:51.349Z,47.87
2018-07-20T05:35:19.848Z,46.88
2018-07-20T05:37:48.417Z,46.98
2018-07-20T05:40:16.966Z,45.99
2018-07-20T05:42:45.522Z,45.72
2018-07-20T05:45:14.018Z,45.62
2018-07-20T05:47:42.530Z,46.19
2018-07-20T05:50:11.068Z,46.97
2018-07-20T05:52:39.652Z,45.49
2018-07-20T05:55:08.285Z,46.53
2018-07-20T05:57:36.807Z,46.87
2018-07-20T06:00:05.962Z,46.02
2018-07-20T06:02:40.581Z,44.33
2018-07-20T06:05:09.123Z,45.02
2018-07-20T06:07:37.619Z,44.55
2018-07-20T06:10:06.094Z,43.69
2018-07-20T06:12:34.685Z,42.62
2018-07-20T06:15:03.226Z,41.85
2018-07-20T06:17:31.818Z,41.09
2018-07-20T06:20:00.326Z,40.39
2018-07-20T06:22:29.029Z,40.01
2018-07-20T06:24:57.820Z,39.95
2018-07-20T06:27:26.672Z,37.69
2018-07-20T06:29:55.236Z,38.22
2018-07-20T06:32:23.751Z,37.82
2018-07-20T06:34:52.473Z,37.10
2018-07-20T06:37:21.150Z,37.47
2018-07-20T06:39:49.800Z,37.88
2018-07-20T06:42:18.426Z,37.23
2018-07-20T06:44:46.995Z,35.87
2018-07-20T06:47:15.682Z,34.32
2018-07-20T06:49:44.376Z,32.49
2018-07-20T06:52:13.059Z,33.85
2018-07-20T06:54:42.406Z,33.26
2018-07-20T06:57:11.381Z,33.21
2018-07-20T06:59:40.016Z,31.81
2018-07-20T07:02:08.594Z,31.63
2018-07-20T07:04:37.678Z,30.92
2018-07-20T07:07:07.119Z,29.84
2018-07-20T07:09:35.676Z,29.84
2018-07-20T07:12:04.340Z,28.25
2018-07-20T07:14:33.010Z,27.19
2018-07-20T07:17:01.633Z,26.95
2018-07-20T07:19:30.316Z,25.87
2018-07-20T07:21:59.193Z,25.52
2018-07-20T07:24:27.855Z,24.85
2018-07-20T07:26:56.440Z,25.14
2018-07-20T07:29:25.004Z,23.85
2018-07-20T07:31:53.528Z,22.09
2018-07-20T07:34:22.159Z,22.95
2018-07-20T07:36:50.815Z,22.06
2018-07-20T07:39:19.785Z,21.53
2018-07-20T07:41:48.481Z,21.31
2018-07-20T07:44:17.045Z,20.59
2018-07-20T07:46:45.797Z,20.22
2018-07-20T07:49:14.642Z,19.46
2018-07-20T07:51:43.474Z,18.74
2018-07-20T07:54:12.089Z,20.34
2018-07-20T07:56:40.694Z,18.96
2018-07-20T07:59:09.327Z,18.58
2018-07-20T08:01:38.052Z,17.36
2018-07-20T08:04:07.592Z,17.54
2018-07-20T08:06:36.193Z,16.74
2018-07-20T08:09:08.713Z,16.61
2018-07-20T08:11:37.760Z,17.59
2018-07-20T08:14:06.344Z,16.81
2018-07-20T08:16:34.947Z,16.80
2018-07-20T08:19:03.547Z,16.69
2018-07-20T08:21:32.177Z,16.50
2018-07-20T08:24:00.736Z,15.83
2018-07-20T08:26:29.306Z,15.75
2018-07-20T08:28:57.842Z,15.97
2018-07-20T08:31:26.475Z,15.93
2018-07-20T08:33:55.060Z,15.92
2018-07-20T08:36:23.707Z,15.62
2018-07-20T08:38:52.318Z,15.13
2018-07-20T08:41:21.192Z,14.21
2018-07-20T08:43:49.843Z,14.97
2018-07-20T08:46:18.659Z,14.13
2018-07-20T08:48:47.283Z,14.12
2018-07-20T08:51:15.873Z,14.19
2018-07-20T08:53:44.516Z,13.50
2018-07-20T08:56:13.026Z,13.07
2018-07-20T08:58:41.635Z,14.18
2018-07-20T09:01:10.675Z,13.60
2018-07-20T09:03:39.303Z,12.18
2018-07-20T09:06:07.937Z,12.37
2018-07-20T09:08:36.511Z,12.66
2018-07-20T09:11:05.163Z,11.84
2018-07-20T09:13:33.664Z,12.72
2018-07-20T09:16:02.176Z,12.30
2018-07-20T09:18:30.721Z,11.54
2018-07-20T09:20:59.284Z,11.89
2018-07-20T09:23:27.830Z,11.65
2018-07-20T09:25:56.633Z,11.07
2018-07-20T09:28:25.245Z,11.60
2018-07-20T09:30:53.670Z,10.64
2018-07-20T09:33:22.195Z,10.08
2018-07-20T09:35:50.940Z,11.14
2018-07-20T09:38:19.470Z,11.05
2018-07-20T09:40:48.054Z,10.39
2018-07-20T09:43:16.614Z,10.12
2018-07-20T09:45:45.321Z,10.64
2018-07-20T09:48:13.912Z,10.62
2018-07-20T09:50:42.526Z,9.94
2018-07-20T09:53:11.198Z,9.53
2018-07-20T09:55:39.750Z,9.64
2018-07-20T09:58:08.356Z,9.54
2018-07-20T10:00:42.856Z,10.47
2018-07-20T10:03:11.625Z,10.61
2018-07-20T10:05:40.247Z,11.06
2018-07-20T10:08:08.990Z,10.82
2018-07-20T10:10:37.596Z,10.45
2018-07-20T10:13:06.205Z,10.04
2018-07-20T10:15:34.706Z,9.16
2018-07-20T10:18:03.257Z,9.95
2018-07-20T10:20:31.717Z,9.43
2018-07-20T10:23:00.427Z,9.52
2018-07-20T10:25:29.024Z,10.11
2018-07-20T10:27:57.621Z,11.10
2018-07-20T10:30:26.243Z,10.32
2018-07-20T10:32:54.877Z,11.55
2018-07-20T10:35:23.487Z,10.52
2018-07-20T10:37:52.100Z,10.88
2018-07-20T10:40:22.188Z,10.46
2018-07-20T10:42:50.825Z,10.41
2018-07-20T10:45:19.439Z,10.17
2018-07-20T10:47:48.309Z,9.06
2018-07-20T10:50:16.876Z,9.06
2018-07-20T10:52:45.395Z,7.91
2018-07-20T10:55:14.094Z,7.42
2018-07-20T10:57:42.668Z,7.02
2018-07-20T11:00:11.219Z,7.63
2018-07-20T11:02:39.726Z,7.31
2018-07-20T11:05:08.296Z,7.46
2018-07-20T11:07:36.782Z,7.25
2018-07-20T11:10:05.645Z,7.39
2018-07-20T11:12:34.131Z,7.70
2018-07-20T11:15:02.612Z,7.07
2018-07-20T11:17:31.047Z,7.03
2018-07-20T11:19:59.816Z,7.57
2018-07-20T11:22:28.322Z,7.41
2018-07-20T11:24:56.873Z,8.12
2018-07-20T11:27:25.426Z,8.77
2018-07-20T11:29:54.091Z,8.33
2018-07-20T11:32:22.642Z,9.02
2018-07-20T11:34:51.226Z,9.88
2018-07-20T11:37:19.748Z,10.64
2018-07-20T11:39:48.280Z,10.56
2018-07-20T11:42:16.784Z,11.64
2018-07-20T11:44:45.337Z,12.32
2018-07-20T11:47:13.888Z,13.38
2018-07-20T11:49:42.455Z,13.77
2018-07-20T11:52:11.380Z,14.94
2018-07-20T11:54:39.964Z,14.49
2018-07-20T11:57:08.526Z,15.05
2018-07-20T11:59:37.207Z,15.95
2018-07-20T12:02:05.714Z,16.02
2018-07-20T12:04:34.248Z,15.96
2018-07-20T12:07:02.877Z,15.49
2018-07-20T12:09:31.474Z,16.25
2018-07-20T12:12:00.286Z,16.53
2018-07-20T12:14:28.836Z,16.40
2018-07-20T12:16:57.407Z,16.44
2018-07-20T12:19:25.983Z,16.70
2018-07-20T12:21:54.626Z,18.20
2018-07-20T12:24:23.188Z,18.15
2018-07-20T12:26:51.712Z,17.59
2018-07-20T12:29:20.933Z,17.61
2018-07-20T12:31:49.564Z,17.98
2018-07-20T12:34:18.225Z,17.54
2018-07-20T12:36:46.786Z,17.91
2018-07-20T12:39:15.361Z,18.53
2018-07-20T12:41:43.877Z,18.03
2018-07-20T12:44:12.410Z,17.92
2018-07-20T12:46:40.971Z,18.64
2018-07-20T12:49:09.773Z,18.35
2018-07-20T12:51:38.543Z,18.54
2018-07-20T12:54:07.164Z,18.53
2018-07-20T12:56:35.762Z,17.81
2018-07-20T12:59:04.342Z,18.07
2018-07-20T13:01:33.294Z,18.74
2018-07-20T13:04:04.858Z,19.21
2018-07-20T13:06:33.681Z,19.16
2018-07-20T13:09:02.347Z,19.06
2018-07-20T13:11:30.957Z,18.98
2018-07-20T13:13:59.714Z,19.31
2018-07-20T13:16:28.308Z,18.66
2018-07-20T13:18:56.828Z,18.27
2018-07-20T13:21:25.455Z,18.63
2018-07-20T13:23:54.189Z,17.98
2018-07-20T13:26:22.863Z,18.81
2018-07-20T13:28:51.364Z,18.94
2018-07-20T13:31:20.194Z,18.19
2018-07-20T13:33:49.224Z,18.68
2018-07-20T13:36:17.759Z,17.81
2018-07-20T13:38:47.281Z,18.50
2018-07-20T13:41:15.854Z,17.94
2018-07-20T13:43:44.330Z,18.57
2018-07-20T13:46:12.944Z,18.59
2018-07-20T13:48:41.483Z,18.34
2018-07-20T13:51:10.139Z,18.02
2018-07-20T13:53:38.824Z,18.64
2018-07-20T13:56:07.369Z,18.80
2018-07-20T13:58:35.896Z,18.20
2018-07-20T14:01:04.451Z,18.36
2018-07-20T14:03:32.916Z,18.02
2018-07-20T14:06:01.527Z,18.46
2018-07-20T14:08:30.068Z,19.41
2018-07-20T14:10:58.577Z,19.55
2018-07-20T14:13:27.023Z,19.87
2018-07-20T14:15:55.674Z,20.14
2018-07-20T14:18:24.249Z,20.43
2018-07-20T14:20:52.835Z,19.86
2018-07-20T14:23:21.443Z,19.26
2018-07-20T14:25:50.029Z,20.06
2018-07-20T14:28:18.563Z,19.85
2018-07-20T14:30:47.189Z,19.97
2018-07-20T14:33:15.782Z,19.67
2018-07-20T14:35:44.638Z,19.28
2018-07-20T14:38:13.412Z,19.46
2018-07-20T14:40:42.023Z,18.76
2018-07-20T14:43:10.950Z,18.69
2018-07-20T14:45:40.319Z,18.57
2018-07-20T14:48:08.896Z,18.35
2018-07-20T14:50:37.469Z,18.81
2018-07-20T14:53:06.042Z,19.04
2018-07-20T14:55:34.691Z,18.62
2018-07-20T14:58:03.326Z,18.77
2018-07-20T15:00:32.164Z,18.27
2018-07-20T15:03:00.797Z,18.72
2018-07-20T15:05:29.586Z,18.42
2018-07-20T15:07:58.186Z,19.25
2018-07-20T15:10:26.805Z,18.56
2018-07-20T15:12:55.354Z,18.42
2018-07-20T15:15:23.876Z,18.37
2018-07-20T15:17:52.558Z,18.65
2018-07-20T15:20:21.146Z,18.68
2018-07-20T15:22:49.731Z,18.87
2018-07-20T15:25:18.272Z,19.14
2018-07-20T15:27:46.744Z,18.58
2018-07-20T15:30:15.290Z,18.49
2018-07-20T15:32:43.862Z,18.77
2018-07-20T15:35:12.397Z,18.58
2018-07-20T15:37:41.018Z,19.15
2018-07-20T15:40:09.599Z,19.44
2018-07-20T15:42:38.075Z,19.26
2018-07-20T15:45:06.834Z,19.91
2018-07-20T15:47:35.532Z,19.57
2018-07-20T15:50:04.166Z,19.66
2018-07-20T15:55:01.304Z,18.95
2018-07-20T15:57:30.156Z,18.79
2018-07-20T15:59:58.971Z,19.90
2018-07-20T16:02:27.389Z,19.90
2018-07-20T16:04:56.118Z,18.91
2018-07-20T16:07:24.641Z,18.77
2018-07-20T16:09:53.169Z,19.49
2018-07-20T16:12:21.803Z,18.96
2018-07-20T16:14:50.377Z,19.51
2018-07-20T16:17:19.037Z,19.76
2018-07-20T16:19:47.692Z,19.04
2018-07-20T16:22:16.206Z,19.92
2018-07-20T16:24:44.802Z,19.69
2018-07-20T16:27:13.341Z,19.96
2018-07-20T16:29:41.851Z,20.34
2018-07-20T16:32:10.476Z,20.56
2018-07-20T16:34:40.128Z,20.05
2018-07-20T16:37:08.922Z,20.54
2018-07-20T16:39:39.800Z,19.95
2018-07-20T16:42:09.265Z,20.68
2018-07-20T16:44:38.190Z,20.83
2018-07-20T16:47:07.178Z,21.23
2018-07-20T16:49:35.871Z,21.30
2018-07-20T16:52:04.777Z,21.78
2018-07-20T16:54:33.305Z,21.28
2018-07-20T16:57:01.857Z,20.81
2018-07-20T16:59:30.427Z,21.69
2018-07-20T17:01:59.002Z,21.62
2018-07-20T17:04:27.591Z,20.55
2018-07-20T17:06:56.375Z,21.35
2018-07-20T17:09:25.002Z,21.42
2018-07-20T17:11:53.675Z,22.06
2018-07-20T17:14:22.291Z,21.72
2018-07-20T17:16:51.156Z,22.11
2018-07-20T17:19:19.708Z,21.50
2018-07-20T17:21:48.453Z,21.73
2018-07-20T17:24:17.024Z,22.19
2018-07-20T17:26:45.593Z,22.46
2018-07-20T17:29:14.192Z,21.94
2018-07-20T17:31:43.491Z,22.13
2018-07-20T17:34:12.036Z,21.54
2018-07-20T17:36:40.982Z,21.18
2018-07-20T17:39:11.041Z,22.05
2018-07-20T17:41:41.759Z,21.92
2018-07-20T17:44:10.950Z,21.99
2018-07-20T17:46:39.492Z,21.56
2018-07-20T17:49:09.355Z,21.69
2018-07-20T17:51:38.173Z,21.47
2018-07-20T17:54:06.797Z,21.67
2018-07-20T17:56:35.815Z,21.31
2018-07-20T17:59:04.608Z,21.64
2018-07-20T18:01:33.256Z,21.41
2018-07-20T18:04:02.165Z,21.34
2018-07-20T18:06:31.040Z,21.56
2018-07-20T18:08:59.641Z,21.48
2018-07-20T18:11:28.640Z,21.38
2018-07-20T18:13:57.264Z,21.88
2018-07-20T18:16:25.787Z,21.76
2018-07-20T18:18:54.361Z,21.70
2018-07-20T18:21:22.993Z,21.58
2018-07-20T18:23:51.562Z,21.83
2018-07-20T18:26:20.072Z,21.57
2018-07-20T18:28:48.516Z,22.05
2018-07-20T18:31:17.151Z,21.71
2018-07-20T18:33:46.145Z,21.85
2018-07-20T18:36:14.991Z,21.84
2018-07-20T18:38:43.996Z,21.56
2018-07-20T18:41:12.685Z,21.89
2018-07-20T18:43:41.431Z,21.95
2018-07-20T18:46:10.085Z,21.96
2018-07-20T18:48:38.771Z,22.07
2018-07-20T18:51:08.417Z,22.00
2018-07-20T18:53:37.176Z,22.39
2018-07-20T18:56:05.826Z,22.41
2018-07-20T18:58:34.467Z,22.69
2018-07-20T19:01:03.329Z,22.94
2018-07-20T19:03:32.008Z,22.57
2018-07-20T19:06:00.705Z,22.68
2018-07-20T19:08:29.603Z,22.74
2018-07-20T19:10:58.372Z,24.25
2018-07-20T19:13:27.332Z,24.18
2018-07-20T19:15:56.314Z,23.39
2018-07-20T19:18:25.800Z,23.75
2018-07-20T19:20:54.747Z,23.97
2018-07-20T19:23:23.361Z,23.90
2018-07-20T19:25:51.937Z,23.61
2018-07-20T19:28:20.474Z,24.54
2018-07-20T19:30:49.035Z,24.32
2018-07-20T19:33:17.678Z,25.15
2018-07-20T19:35:46.448Z,25.37
2018-07-20T19:38:15.192Z,24.83
2018-07-20T19:40:43.779Z,25.68
2018-07-20T19:43:12.456Z,24.97
2018-07-20T19:45:41.461Z,25.97
2018-07-20T19:48:10.789Z,26.65
2018-07-20T19:50:39.816Z,26.59
2018-07-20T19:53:08.993Z,26.25
2018-07-20T19:55:38.461Z,27.75
2018-07-20T19:58:07.815Z,28.32
2018-07-20T20:00:36.598Z,29.19
2018-07-20T20:03:06.233Z,29.79
2018-07-20T20:05:34.865Z,30.68
2018-07-20T20:08:03.598Z,29.82
2018-07-20T20:10:32.445Z,30.71
2018-07-20T20:13:01.187Z,30.58
2018-07-20T20:15:30.050Z,31.39
2018-07-20T20:17:58.853Z,32.11
2018-07-20T20:20:27.541Z,32.61
2018-07-20T20:22:56.127Z,31.78
2018-07-20T20:25:24.693Z,31.86
2018-07-20T20:27:53.413Z,32.14
2018-07-20T20:30:22.068Z,31.63
2018-07-20T20:32:50.612Z,32.83
2018-07-20T20:35:19.271Z,33.24
2018-07-20T20:37:48.004Z,32.62
2018-07-20T20:40:16.553Z,33.71
2018-07-20T20:42:45.116Z,33.92
2018-07-20T20:45:13.765Z,34.00
2018-07-20T20:47:42.349Z,34.22
2018-07-20T20:50:10.922Z,34.39
2018-07-20T20:52:39.505Z,34.58
2018-07-20T20:55:08.265Z,33.88
2018-07-20T20:57:36.959Z,34.48
2018-07-20T21:00:06.255Z,34.39
2018-07-20T21:02:34.911Z,34.27
2018-07-20T21:05:03.738Z,34.24
2018-07-20T21:07:32.315Z,34.45
2018-07-20T21:10:00.938Z,34.44
2018-07-20T21:12:29.528Z,35.43
2018-07-20T21:14:58.144Z,35.66
2018-07-20T21:17:26.729Z,34.72
2018-07-20T21:19:55.361Z,34.75
2018-07-20T21:22:23.884Z,35.75
2018-07-20T21:24:52.468Z,35.70
2018-07-20T21:27:21.039Z,34.84
2018-07-20T21:29:49.632Z,35.81
2018-07-20T21:32:18.249Z,35.29
2018-07-20T21:34:46.861Z,35.92
2018-07-20T21:37:15.373Z,35.56
2018-07-20T21:39:44.027Z,36.29
2018-07-20T21:42:12.544Z,36.09
2018-07-20T21:44:41.153Z,36.07
2018-07-20T21:47:09.714Z,36.06
2018-07-20T21:49:38.334Z,36.39
2018-07-20T21:52:06.827Z,35.53
2018-07-20T21:54:35.343Z,35.20
2018-07-20T21:57:03.867Z,35.71
2018-07-20T21:59:32.585Z,35.32
2018-07-20T22:02:01.222Z,35.07
2018-07-20T22:04:29.803Z,35.62
2018-07-20T22:06:58.348Z,35.27
2018-07-20T22:09:26.864Z,36.06
2018-07-20T22:11:55.358Z,36.26
2018-07-20T22:14:23.842Z,35.64
2018-07-20T22:16:52.374Z,36.44
2018-07-20T22:19:20.888Z,36.22
2018-07-20T22:21:49.419Z,35.67
2018-07-20T22:24:18.096Z,35.88
2018-07-20T22:26:46.654Z,36.61
2018-07-20T22:29:15.190Z,36.92
2018-07-20T22:31:43.736Z,37.08
2018-07-20T22:34:12.315Z,37.13
2018-07-20T22:36:40.952Z,36.53
2018-07-20T22:39:11.388Z,37.36
2018-07-20T22:41:39.932Z,37.99
2018-07-20T22:44:08.414Z,37.83
2018-07-20T22:46:36.980Z,36.81
2018-07-20T22:49:05.631Z,36.87
2018-07-20T22:51:34.283Z,37.04
2018-07-20T22:54:02.894Z,37.23
2018-07-20T22:56:31.527Z,37.68
2018-07-20T22:59:00.137Z,37.34
2018-07-20T23:01:28.742Z,37.21
2018-07-20T23:03:57.291Z,37.67
2018-07-20T23:06:25.900Z,37.30
2018-07-20T23:08:54.403Z,37.03
2018-07-20T23:11:22.996Z,37.73
2018-07-20T23:13:51.550Z,37.97
2018-07-20T23:16:20.146Z,38.40
2018-07-20T23:18:48.672Z,38.23
2018-07-20T23:21:17.216Z,37.47
2018-07-20T23:23:45.890Z,37.60
2018-07-20T23:26:14.531Z,37.91
2018-07-20T23:28:43.051Z,38.72
2018-07-20T23:31:11.640Z,37.85
2018-07-20T23:33:40.203Z,37.66
2018-07-20T23:36:08.828Z,37.70
2018-07-20T23:38:37.448Z,38.11
2018-07-20T23:41:06.203Z,38.66
2018-07-20T23:43:34.719Z,38.50
2018-07-20T23:46:03.316Z,38.69
2018-07-20T23:48:31.875Z,38.56
2018-07-20T23:51:00.537Z,38.31
2018-07-20T23:53:29.104Z,38.86
2018-07-20T23:55:57.929Z,38.84
2018-07-20T23:58:26.620Z,38.81
